Time;durP1;ratioP1;P1;durP2;ratioP2;P2;SDS_P1;SDS_P2;PMS_P1;PMS_P2;Temp;Humidity;BMP_temperature;BMP_pressure;BME280_temperature;BME280_humidity;BME280_pressure;Samples;Min_cycle;Max_cycle;Signal;HPM_P1;HPM_P2
2023/01/19 00:00:44;;;;;;;;;;;14.00;62.60;;;;;;5096248;28;19908;-83
2023/01/19 00:03:14;;;;;;;;;;;14.00;62.50;;;;;;5111838;28;20197;-83
2023/01/19 00:05:41;;;;;;;;;;;14.00;62.50;;;;;;5111668;28;19938;-83
2023/01/19 00:08:16;;;;;;;;;;;14.00;62.60;;;;;;5077290;28;20321;-83
2023/01/19 00:10:43;;;;;;;;;;;14.00;62.70;;;;;;5110059;28;20052;-82
2023/01/19 00:13:09;;;;;;;;;;;14.00;62.60;;;;;;5074169;28;20173;-83
2023/01/19 00:15:35;;;;;;;;;;;14.00;62.60;;;;;;5077267;28;19999;-83
2023/01/19 00:18:00;;;;;;;;;;;13.90;62.40;;;;;;5111119;28;20038;-83
2023/01/19 00:20:30;;;;;;;;;;;13.90;62.40;;;;;;5111936;28;19923;-83
2023/01/19 00:22:56;;;;;;;;;;;13.90;62.40;;;;;;5078169;28;19920;-83
2023/01/19 00:25:22;;;;;;;;;;;13.90;62.50;;;;;;5111771;28;20213;-82
2023/01/19 00:27:48;;;;;;;;;;;13.90;62.40;;;;;;5096345;28;19909;-83
2023/01/19 00:30:16;;;;;;;;;;;13.90;62.40;;;;;;5110195;28;20307;-82
2023/01/19 00:32:42;;;;;;;;;;;13.90;62.40;;;;;;5076088;28;19923;-83
2023/01/19 00:35:07;;;;;;;;;;;13.90;63.10;;;;;;5109327;28;19908;-83
2023/01/19 00:37:33;;;;;;;;;;;13.80;62.50;;;;;;5109148;28;19915;-83
2023/01/19 00:39:59;;;;;;;;;;;13.80;62.40;;;;;;5108295;28;20054;-83
2023/01/19 00:42:39;;;;;;;;;;;13.80;62.30;;;;;;5107821;28;19912;-83
2023/01/19 00:45:23;;;;;;;;;;;13.80;62.40;;;;;;5109509;28;19908;-83
2023/01/19 00:47:55;;;;;;;;;;;13.80;62.40;;;;;;5075438;28;20281;-83
2023/01/19 00:50:25;;;;;;;;;;;13.80;62.40;;;;;;5075442;28;19908;-84
2023/01/19 00:52:51;;;;;;;;;;;13.80;62.60;;;;;;5075019;28;19927;-84
2023/01/19 00:55:17;;;;;;;;;;;13.70;62.40;;;;;;5076511;28;19919;-84
2023/01/19 00:57:42;;;;;;;;;;;13.70;62.60;;;;;;5110358;28;19908;-84
2023/01/19 01:00:10;;;;;;;;;;;13.70;62.60;;;;;;5110362;28;19908;-84
2023/01/19 01:02:36;;;;;;;;;;;13.70;62.60;;;;;;5077456;28;19912;-83
2023/01/19 01:05:05;;;;;;;;;;;13.60;62.50;;;;;;5078482;28;19919;-84
2023/01/19 01:07:39;;;;;;;;;;;13.60;62.50;;;;;;5078073;28;20242;-84
2023/01/19 01:10:09;;;;;;;;;;;13.60;62.50;;;;;;5080105;28;20233;-84
2023/01/19 01:12:35;;;;;;;;;;;13.60;62.60;;;;;;5079582;28;19908;-84
2023/01/19 01:15:01;;;;;;;;;;;13.60;62.60;;;;;;5079350;28;19908;-84
2023/01/19 01:17:26;;;;;;;;;;;13.60;62.50;;;;;;5113503;28;19908;-84
2023/01/19 01:19:52;;;;;;;;;;;13.50;62.50;;;;;;5112259;28;20189;-84
2023/01/19 01:22:18;;;;;;;;;;;13.50;62.50;;;;;;5109036;28;19912;-84
2023/01/19 01:24:43;;;;;;;;;;;13.50;62.50;;;;;;5109481;28;19914;-84
2023/01/19 01:27:09;;;;;;;;;;;13.50;62.40;;;;;;5075794;28;19908;-84
2023/01/19 01:29:36;;;;;;;;;;;13.50;62.40;;;;;;5108097;28;19973;-84
2023/01/19 01:32:01;;;;;;;;;;;13.50;62.20;;;;;;5092797;28;20104;-84
2023/01/19 01:34:27;;;;;;;;;;;13.50;62.20;;;;;;5107555;28;19915;-84
2023/01/19 01:36:53;;;;;;;;;;;13.40;62.20;;;;;;5107252;28;19952;-83
2023/01/19 01:39:20;;;;;;;;;;;13.40;62.20;;;;;;5108596;28;20185;-84
2023/01/19 01:41:46;;;;;;;;;;;13.40;62.10;;;;;;5092419;28;20270;-84
2023/01/19 01:44:30;;;;;;;;;;;13.40;62.10;;;;;;5075594;28;19962;-84
2023/01/19 01:46:56;;;;;;;;;;;13.40;62.10;;;;;;5075155;28;20257;-84
2023/01/19 01:49:22;;;;;;;;;;;13.40;62.30;;;;;;5078389;28;19920;-84
2023/01/19 01:51:50;;;;;;;;;;;13.40;62.40;;;;;;5077939;28;20188;-84
2023/01/19 01:54:15;;;;;;;;;;;13.40;62.20;;;;;;5111295;28;20139;-83
2023/01/19 01:56:44;;;;;;;;;;;13.40;62.30;;;;;;5077568;28;20215;-84
2023/01/19 01:59:11;;;;;;;;;;;13.40;62.10;;;;;;5111625;28;19919;-84
2023/01/19 02:04:22;;;;;;;;;;;13.30;62.00;;;;;;5094341;28;19915;-84
2023/01/19 02:15:02;;;;;;;;;;;13.30;61.90;;;;;;5094225;28;19915;-84
2023/01/19 02:17:28;;;;;;;;;;;13.30;61.90;;;;;;5110288;28;19912;-84
2023/01/19 02:19:53;;;;;;;;;;;13.20;61.70;;;;;;5094718;28;19919;-84
2023/01/19 02:22:23;;;;;;;;;;;13.20;61.70;;;;;;5112531;28;19995;-84
2023/01/19 02:24:49;;;;;;;;;;;13.20;61.80;;;;;;5111981;28;19919;-84
2023/01/19 02:27:15;;;;;;;;;;;13.20;61.70;;;;;;5116122;28;19908;-84
2023/01/19 02:29:41;;;;;;;;;;;13.20;61.70;;;;;;5114537;28;19908;-84
2023/01/19 02:32:07;;;;;;;;;;;13.20;61.70;;;;;;5115623;28;19927;-84
2023/01/19 02:34:33;;;;;;;;;;;13.20;61.80;;;;;;5080532;28;19908;-84
2023/01/19 02:37:00;;;;;;;;;;;13.20;61.80;;;;;;5083612;28;19919;-84
2023/01/19 02:39:28;;;;;;;;;;;13.20;61.80;;;;;;5116288;28;19916;-84
2023/01/19 02:41:55;;;;;;;;;;;13.20;61.80;;;;;;5080734;28;19968;-84
2023/01/19 02:44:22;;;;;;;;;;;13.10;61.80;;;;;;5098916;28;19938;-84
2023/01/19 02:46:48;;;;;;;;;;;13.10;61.80;;;;;;5079819;28;19926;-84
2023/01/19 02:49:13;;;;;;;;;;;13.10;61.80;;;;;;5079622;28;20018;-84
2023/01/19 02:51:41;;;;;;;;;;;13.10;61.80;;;;;;5115257;28;19912;-84
2023/01/19 02:54:25;;;;;;;;;;;13.10;61.90;;;;;;5099567;28;19922;-84
2023/01/19 02:56:54;;;;;;;;;;;13.10;61.80;;;;;;5100237;28;19919;-84
2023/01/19 02:59:22;;;;;;;;;;;13.10;61.80;;;;;;5115208;28;20262;-84
2023/01/19 03:01:55;;;;;;;;;;;13.10;61.80;;;;;;5115280;28;19961;-84
2023/01/19 03:04:24;;;;;;;;;;;13.10;61.80;;;;;;5082385;28;19908;-84
2023/01/19 03:07:01;;;;;;;;;;;13.10;61.80;;;;;;5115818;28;19959;-84
2023/01/19 03:09:30;;;;;;;;;;;13.10;61.80;;;;;;5081767;28;19916;-84
2023/01/19 03:12:04;;;;;;;;;;;13.00;61.80;;;;;;5081641;28;19909;-84
2023/01/19 03:14:31;;;;;;;;;;;13.00;61.90;;;;;;5079882;28;20089;-83
2023/01/19 03:17:00;;;;;;;;;;;13.00;61.80;;;;;;5081072;28;20002;-84
2023/01/19 03:19:26;;;;;;;;;;;13.10;61.70;;;;;;5082633;28;19908;-84
2023/01/19 03:21:55;;;;;;;;;;;13.00;61.70;;;;;;5082759;28;19947;-84
2023/01/19 03:24:22;;;;;;;;;;;13.00;61.70;;;;;;5082101;28;19919;-84
2023/01/19 03:26:55;;;;;;;;;;;13.00;61.60;;;;;;5080740;28;19936;-84
2023/01/19 03:29:21;;;;;;;;;;;13.00;61.60;;;;;;5081376;28;19974;-84
2023/01/19 03:31:48;;;;;;;;;;;13.00;61.60;;;;;;5080040;28;19998;-84
2023/01/19 03:34:15;;;;;;;;;;;12.90;61.40;;;;;;5080424;28;20166;-84
2023/01/19 03:36:45;;;;;;;;;;;12.90;61.40;;;;;;5096712;28;20215;-84
2023/01/19 03:39:11;;;;;;;;;;;12.90;61.40;;;;;;5080015;28;20269;-84
2023/01/19 03:41:38;;;;;;;;;;;12.90;61.40;;;;;;5079127;28;20167;-84
2023/01/19 03:44:05;;;;;;;;;;;12.90;61.40;;;;;;5097192;28;20153;-84
2023/01/19 03:46:31;;;;;;;;;;;12.80;61.40;;;;;;5080072;28;19935;-84
2023/01/19 03:48:57;;;;;;;;;;;12.80;61.40;;;;;;5097079;28;19908;-84
2023/01/19 03:51:23;;;;;;;;;;;12.80;61.50;;;;;;5080476;28;19908;-84
2023/01/19 03:53:49;;;;;;;;;;;12.70;61.60;;;;;;5080413;28;20168;-84
2023/01/19 03:56:19;;;;;;;;;;;12.70;61.70;;;;;;5080585;28;19908;-84
2023/01/19 03:58:45;;;;;;;;;;;12.70;61.80;;;;;;5080077;28;19908;-84
2023/01/19 04:01:10;;;;;;;;;;;12.70;61.90;;;;;;5098191;28;20270;-84
2023/01/19 04:03:36;;;;;;;;;;;12.70;62.20;;;;;;5113869;28;20269;-84
2023/01/19 04:06:01;;;;;;;;;;;12.70;62.20;;;;;;5079519;28;19965;-84
2023/01/19 04:08:27;;;;;;;;;;;12.80;62.00;;;;;;5112162;28;19908;-84
2023/01/19 04:10:53;;;;;;;;;;;12.80;61.70;;;;;;5112786;28;20003;-84
2023/01/19 04:13:18;;;;;;;;;;;12.90;61.40;;;;;;5112309;28;19931;-84
2023/01/19 04:15:45;;;;;;;;;;;13.00;61.20;;;;;;5113166;28;20308;-84
2023/01/19 04:18:10;;;;;;;;;;;13.10;60.80;;;;;;5112232;28;19908;-84
2023/01/19 04:20:36;;;;;;;;;;;13.20;60.40;;;;;;5078127;28;20083;-84
2023/01/19 04:23:01;;;;;;;;;;;13.30;60.00;;;;;;5078606;28;19923;-83
2023/01/19 04:25:27;;;;;;;;;;;13.30;59.60;;;;;;5112780;28;19908;-83
2023/01/19 04:27:54;;;;;;;;;;;13.50;59.40;;;;;;5096923;28;19916;-83
2023/01/19 04:30:19;;;;;;;;;;;13.50;59.10;;;;;;5078089;28;19908;-84
2023/01/19 04:32:45;;;;;;;;;;;13.60;58.80;;;;;;5078162;28;19923;-84
2023/01/19 04:35:13;;;;;;;;;;;13.70;58.50;;;;;;5076590;28;20489;-83
2023/01/19 04:37:39;;;;;;;;;;;13.80;58.20;;;;;;5112100;28;19951;-84
2023/01/19 04:40:04;;;;;;;;;;;13.90;58.00;;;;;;5111464;28;19955;-84
2023/01/19 04:42:31;;;;;;;;;;;13.90;57.90;;;;;;5076772;28;20189;-84
2023/01/19 04:44:56;;;;;;;;;;;14.00;57.80;;;;;;5096459;28;19915;-84
2023/01/19 04:47:22;;;;;;;;;;;14.00;57.70;;;;;;5111856;28;19931;-84
2023/01/19 04:49:47;;;;;;;;;;;14.00;57.50;;;;;;5094959;28;20313;-84
2023/01/19 04:52:13;;;;;;;;;;;14.10;57.40;;;;;;5112389;28;20125;-84
2023/01/19 04:54:39;;;;;;;;;;;14.10;57.30;;;;;;5111356;28;19919;-84
2023/01/19 04:57:04;;;;;;;;;;;14.20;57.20;;;;;;5095542;28;20168;-84
2023/01/19 04:59:30;;;;;;;;;;;14.20;57.20;;;;;;5112062;28;20007;-84
2023/01/19 05:01:56;;;;;;;;;;;14.30;57.10;;;;;;5078658;28;19958;-84
2023/01/19 05:04:22;;;;;;;;;;;14.30;57.10;;;;;;5111387;28;20076;-84
2023/01/19 05:06:48;;;;;;;;;;;14.30;57.00;;;;;;5076911;28;19916;-84
2023/01/19 05:09:14;;;;;;;;;;;14.30;57.00;;;;;;5109150;28;19996;-84
2023/01/19 05:11:40;;;;;;;;;;;14.40;56.90;;;;;;5108652;28;20364;-83
2023/01/19 05:14:05;;;;;;;;;;;14.40;56.90;;;;;;5110218;28;19908;-84
2023/01/19 05:16:31;;;;;;;;;;;14.40;56.80;;;;;;5093756;28;19916;-84
2023/01/19 05:18:57;;;;;;;;;;;14.50;56.80;;;;;;5075227;28;19935;-84
2023/01/19 05:21:23;;;;;;;;;;;14.60;56.70;;;;;;5108913;28;20002;-84
2023/01/19 05:23:48;;;;;;;;;;;14.60;56.70;;;;;;5075781;28;20303;-83
2023/01/19 05:26:14;;;;;;;;;;;14.60;56.70;;;;;;5110333;28;19972;-84
2023/01/19 05:28:39;;;;;;;;;;;14.60;56.60;;;;;;5108568;28;19919;-84
2023/01/19 05:31:05;;;;;;;;;;;14.60;56.60;;;;;;5109927;28;19908;-85
2023/01/19 05:33:31;;;;;;;;;;;14.60;56.60;;;;;;5111084;28;19982;-84
2023/01/19 05:35:56;;;;;;;;;;;14.60;56.60;;;;;;5113048;28;19916;-84
2023/01/19 05:38:22;;;;;;;;;;;14.60;56.50;;;;;;5114597;28;19993;-84
2023/01/19 05:40:49;;;;;;;;;;;14.60;56.40;;;;;;5078118;28;19935;-84
2023/01/19 05:43:14;;;;;;;;;;;14.70;56.50;;;;;;5111914;28;19943;-84
2023/01/19 05:45:40;;;;;;;;;;;14.70;56.50;;;;;;5110753;28;19954;-84
2023/01/19 05:48:06;;;;;;;;;;;14.70;56.40;;;;;;5078177;28;19908;-84
2023/01/19 05:50:33;;;;;;;;;;;14.70;56.40;;;;;;5080258;28;19908;-84
2023/01/19 05:52:59;;;;;;;;;;;14.70;56.40;;;;;;5079229;28;19919;-84
2023/01/19 05:55:25;;;;;;;;;;;14.70;56.40;;;;;;5077488;28;19931;-84
2023/01/19 05:57:50;;;;;;;;;;;14.70;56.40;;;;;;5078783;28;19908;-84
2023/01/19 06:00:17;;;;;;;;;;;14.70;56.40;;;;;;5079412;28;20022;-84
2023/01/19 06:02:42;;;;;;;;;;;14.80;56.40;;;;;;5083162;28;20197;-84
2023/01/19 06:05:08;;;;;;;;;;;14.70;56.30;;;;;;5098414;28;19908;-84
2023/01/19 06:07:36;;;;;;;;;;;14.80;56.30;;;;;;5096016;28;20000;-84
2023/01/19 06:10:02;;;;;;;;;;;14.80;56.20;;;;;;5081741;28;19916;-84
2023/01/19 06:12:28;;;;;;;;;;;14.80;56.60;;;;;;5114370;28;19908;-84
2023/01/19 06:14:54;;;;;;;;;;;14.80;56.60;;;;;;5116541;28;19942;-84
2023/01/19 06:17:19;;;;;;;;;;;14.80;56.20;;;;;;5114297;28;20400;-84
2023/01/19 06:19:44;;;;;;;;;;;14.80;56.10;;;;;;5095505;28;19919;-84
2023/01/19 06:22:10;;;;;;;;;;;14.80;56.00;;;;;;5112877;28;19919;-84
2023/01/19 06:24:36;;;;;;;;;;;14.90;56.10;;;;;;5111890;28;19908;-84
2023/01/19 06:27:01;;;;;;;;;;;14.90;56.00;;;;;;5095372;28;19919;-84
2023/01/19 06:29:27;;;;;;;;;;;14.90;56.00;;;;;;5110206;28;20094;-84
2023/01/19 06:31:53;;;;;;;;;;;15.00;56.00;;;;;;5109525;28;19916;-84
2023/01/19 06:34:18;;;;;;;;;;;15.00;56.00;;;;;;5109992;28;19954;-84
2023/01/19 06:36:45;;;;;;;;;;;15.00;56.00;;;;;;5108286;28;20292;-84
2023/01/19 06:39:11;;;;;;;;;;;15.10;56.00;;;;;;5093308;28;19908;-84
2023/01/19 06:41:37;;;;;;;;;;;15.10;56.00;;;;;;5074386;28;19908;-84
2023/01/19 06:44:03;;;;;;;;;;;15.10;55.90;;;;;;5108030;28;20512;-84
2023/01/19 06:46:28;;;;;;;;;;;15.10;55.90;;;;;;5072750;28;20381;-84
2023/01/19 06:48:54;;;;;;;;;;;15.10;55.90;;;;;;5107267;28;19918;-84
2023/01/19 06:51:20;;;;;;;;;;;15.10;55.80;;;;;;5074583;28;19919;-84
2023/01/19 06:53:46;;;;;;;;;;;15.20;55.80;;;;;;5073608;28;20292;-84
2023/01/19 06:56:12;;;;;;;;;;;15.20;55.70;;;;;;5104120;28;19966;-85
2023/01/19 06:58:37;;;;;;;;;;;15.20;55.70;;;;;;5104878;28;19912;-84
2023/01/19 07:01:03;;;;;;;;;;;15.30;55.80;;;;;;5106298;28;19908;-84
2023/01/19 07:03:29;;;;;;;;;;;15.30;55.80;;;;;;5073325;28;19916;-84
2023/01/19 07:05:55;;;;;;;;;;;15.30;55.70;;;;;;5107874;28;19973;-84
2023/01/19 07:08:21;;;;;;;;;;;15.30;55.80;;;;;;5108633;28;19908;-84
2023/01/19 07:10:47;;;;;;;;;;;15.30;55.70;;;;;;5074019;28;19915;-84
2023/01/19 07:13:12;;;;;;;;;;;15.40;55.80;;;;;;5108801;28;19908;-84
2023/01/19 07:15:38;;;;;;;;;;;15.40;55.70;;;;;;5106344;28;19908;-83
2023/01/19 07:18:06;;;;;;;;;;;15.40;55.80;;;;;;5090271;28;19966;-83
2023/01/19 07:20:36;;;;;;;;;;;15.30;55.80;;;;;;5106706;28;19909;-83
2023/01/19 07:23:02;;;;;;;;;;;15.30;56.00;;;;;;5072044;28;19923;-84
2023/01/19 07:25:28;;;;;;;;;;;15.40;56.10;;;;;;5070875;28;20223;-84
2023/01/19 07:27:57;;;;;;;;;;;15.30;56.10;;;;;;5068670;28;20048;-84
2023/01/19 07:30:22;;;;;;;;;;;15.30;56.20;;;;;;5072861;28;19908;-84
2023/01/19 07:32:48;;;;;;;;;;;15.30;56.30;;;;;;5104644;28;19969;-84
2023/01/19 07:35:14;;;;;;;;;;;15.30;56.30;;;;;;5087938;28;20159;-84
2023/01/19 07:37:40;;;;;;;;;;;15.30;56.30;;;;;;5103655;28;20309;-84
2023/01/19 07:40:06;;;;;;;;;;;15.30;56.40;;;;;;5105265;28;19919;-84
2023/01/19 07:42:31;;;;;;;;;;;15.30;56.40;;;;;;5070319;28;20089;-85
2023/01/19 07:44:57;;;;;;;;;;;15.30;56.40;;;;;;5069584;28;19908;-84
2023/01/19 07:47:23;;;;;;;;;;;15.30;56.40;;;;;;5102326;28;19919;-84
2023/01/19 07:49:48;;;;;;;;;;;15.30;56.40;;;;;;5105021;28;20020;-84
2023/01/19 07:52:14;;;;;;;;;;;15.30;56.40;;;;;;5085884;28;20080;-84
2023/01/19 07:54:40;;;;;;;;;;;15.30;56.40;;;;;;5103028;28;19995;-84
2023/01/19 07:57:06;;;;;;;;;;;15.30;56.40;;;;;;5103289;28;19908;-84
2023/01/19 07:59:31;;;;;;;;;;;15.30;56.40;;;;;;5089287;28;19908;-85
2023/01/19 08:01:58;;;;;;;;;;;15.30;56.50;;;;;;5091423;28;19912;-84
2023/01/19 08:04:26;;;;;;;;;;;15.30;56.40;;;;;;5089712;28;19912;-84
2023/01/19 08:06:52;;;;;;;;;;;15.40;56.50;;;;;;5073901;28;19908;-84
2023/01/19 08:09:18;;;;;;;;;;;15.30;56.40;;;;;;5105067;28;20266;-84
2023/01/19 08:11:43;;;;;;;;;;;15.40;56.50;;;;;;5107408;28;19919;-84
2023/01/19 08:14:09;;;;;;;;;;;15.40;56.50;;;;;;5110688;28;20014;-84
2023/01/19 08:16:35;;;;;;;;;;;15.30;56.50;;;;;;5108213;28;20017;-85
2023/01/19 08:19:01;;;;;;;;;;;15.30;56.50;;;;;;5072324;28;20285;-84
2023/01/19 08:21:27;;;;;;;;;;;15.30;56.50;;;;;;5073814;28;19972;-84
2023/01/19 08:23:53;;;;;;;;;;;15.40;56.50;;;;;;5071105;28;19919;-84
2023/01/19 08:26:18;;;;;;;;;;;15.40;56.50;;;;;;5073212;28;19909;-84
2023/01/19 08:28:44;;;;;;;;;;;15.40;56.50;;;;;;5104497;28;19912;-84
2023/01/19 08:31:10;;;;;;;;;;;15.40;56.50;;;;;;5090125;28;19908;-84
2023/01/19 08:33:35;;;;;;;;;;;15.40;56.40;;;;;;5073014;28;20120;-84
2023/01/19 08:36:01;;;;;;;;;;;15.40;56.30;;;;;;5070747;28;20006;-84
2023/01/19 08:38:27;;;;;;;;;;;15.40;56.30;;;;;;5089544;28;20404;-84
2023/01/19 08:40:52;;;;;;;;;;;15.40;56.30;;;;;;5105247;28;19969;-84
2023/01/19 08:43:18;;;;;;;;;;;15.50;56.40;;;;;;5102775;28;20277;-84
2023/01/19 08:45:50;;;;;;;;;;;15.40;56.30;;;;;;5103425;28;19915;-84
2023/01/19 08:48:17;;;;;;;;;;;15.50;56.30;;;;;;5069232;28;19908;-84
2023/01/19 08:50:46;;;;;;;;;;;15.50;56.30;;;;;;5071190;28;19935;-84
2023/01/19 08:53:12;;;;;;;;;;;15.50;56.30;;;;;;5068731;28;19952;-84
2023/01/19 08:55:38;;;;;;;;;;;15.50;56.30;;;;;;5069717;28;19943;-84
2023/01/19 08:58:04;;;;;;;;;;;15.50;56.30;;;;;;5103147;28;19984;-84
2023/01/19 09:00:30;;;;;;;;;;;15.40;56.40;;;;;;5068684;28;20197;-84
2023/01/19 09:02:56;;;;;;;;;;;15.40;56.50;;;;;;5102900;28;20270;-84
2023/01/19 09:05:22;;;;;;;;;;;15.30;56.90;;;;;;5067156;28;20269;-84
2023/01/19 09:07:50;;;;;;;;;;;15.20;56.80;;;;;;5086424;28;19908;-83
2023/01/19 09:10:16;;;;;;;;;;;15.10;56.90;;;;;;5086544;28;20211;-84
2023/01/19 09:12:43;;;;;;;;;;;15.10;57.00;;;;;;5068027;28;20159;-84
2023/01/19 09:15:11;;;;;;;;;;;15.20;57.00;;;;;;5069089;28;19908;-84
2023/01/19 09:17:37;;;;;;;;;;;15.20;57.00;;;;;;5070643;28;20283;-84
2023/01/19 09:20:03;;;;;;;;;;;15.20;56.90;;;;;;5101458;28;19908;-84
2023/01/19 09:22:28;;;;;;;;;;;15.30;56.80;;;;;;5068186;28;19955;-84
2023/01/19 09:24:54;;;;;;;;;;;15.30;56.70;;;;;;5102455;28;19974;-84
2023/01/19 09:27:20;;;;;;;;;;;15.40;56.60;;;;;;5101420;28;19908;-83
2023/01/19 09:29:51;;;;;;;;;;;15.40;56.60;;;;;;5103091;28;19915;-84
2023/01/19 09:32:17;;;;;;;;;;;15.40;56.60;;;;;;5104242;28;19924;-84
2023/01/19 09:34:43;;;;;;;;;;;15.40;56.60;;;;;;5092044;28;19918;-83
2023/01/19 09:37:08;;;;;;;;;;;15.40;56.50;;;;;;5095348;28;20010;-83
2023/01/19 09:39:34;;;;;;;;;;;15.40;56.50;;;;;;5096668;28;20003;-83
2023/01/19 09:42:04;;;;;;;;;;;15.50;56.40;;;;;;5078325;28;19930;-83
2023/01/19 09:44:32;;;;;;;;;;;15.50;56.50;;;;;;5076261;28;20297;-84
2023/01/19 09:46:58;;;;;;;;;;;15.50;56.40;;;;;;5077042;28;19916;-84
2023/01/19 09:49:33;;;;;;;;;;;15.50;56.40;;;;;;5079228;28;19927;-84
2023/01/19 09:51:59;;;;;;;;;;;15.60;56.40;;;;;;5080082;28;20171;-84
2023/01/19 09:54:30;;;;;;;;;;;15.60;56.40;;;;;;5079046;28;20200;-84
2023/01/19 09:56:55;;;;;;;;;;;15.60;56.30;;;;;;5079374;28;19998;-84
2023/01/19 09:59:25;;;;;;;;;;;15.60;56.30;;;;;;5096723;28;20010;-84
2023/01/19 10:02:09;;;;;;;;;;;15.70;56.20;;;;;;5078381;28;19919;-84
2023/01/19 10:04:42;;;;;;;;;;;15.70;56.20;;;;;;5112241;28;19930;-84
2023/01/19 10:07:13;;;;;;;;;;;15.70;56.20;;;;;;5077181;28;20114;-82
2023/01/19 10:09:39;;;;;;;;;;;15.70;56.10;;;;;;5075657;28;19915;-83
2023/01/19 10:12:15;;;;;;;;;;;15.70;56.60;;;;;;5109926;28;20136;-83
2023/01/19 10:15:02;;;;;;;;;;;15.70;56.30;;;;;;5094969;28;20053;-83
2023/01/19 10:17:43;;;;;;;;;;;15.70;56.40;;;;;;5078146;28;19908;-84
2023/01/19 10:20:16;;;;;;;;;;;15.70;56.40;;;;;;5109621;28;20019;-84
2023/01/19 10:22:44;;;;;;;;;;;15.70;56.40;;;;;;5078229;28;19912;-84
2023/01/19 10:25:14;;;;;;;;;;;15.70;56.40;;;;;;5094323;28;20006;-84
2023/01/19 10:27:40;;;;;;;;;;;15.70;56.50;;;;;;5076484;28;19908;-84
2023/01/19 10:30:07;;;;;;;;;;;15.70;56.40;;;;;;5109622;28;19908;-84
2023/01/19 10:32:34;;;;;;;;;;;15.70;56.50;;;;;;5075289;28;19922;-84
2023/01/19 10:35:01;;;;;;;;;;;15.70;56.50;;;;;;5072515;28;20561;-84
2023/01/19 10:37:27;;;;;;;;;;;15.60;56.60;;;;;;5071069;28;20277;-84
2023/01/19 10:39:54;;;;;;;;;;;15.50;56.70;;;;;;5107099;28;19919;-84
2023/01/19 10:42:20;;;;;;;;;;;15.50;56.90;;;;;;5072327;28;19912;-84
2023/01/19 10:44:45;;;;;;;;;;;15.40;57.10;;;;;;5106598;28;20205;-84
2023/01/19 10:47:15;;;;;;;;;;;15.30;57.20;;;;;;5104128;28;20022;-84
2023/01/19 10:49:42;;;;;;;;;;;15.20;57.40;;;;;;5069623;28;19908;-84
2023/01/19 10:52:17;;;;;;;;;;;15.10;57.50;;;;;;5070249;28;20389;-84
2023/01/19 10:54:43;;;;;;;;;;;15.10;57.80;;;;;;5068752;28;20041;-84
2023/01/19 10:57:11;;;;;;;;;;;15.00;57.90;;;;;;5103142;28;19931;-84
2023/01/19 10:59:42;;;;;;;;;;;15.10;58.00;;;;;;5070673;28;19946;-83
2023/01/19 11:02:14;;;;;;;;;;;15.10;58.10;;;;;;5104395;28;19939;-84
2023/01/19 11:04:40;;;;;;;;;;;15.10;58.10;;;;;;5069288;28;20113;-84
2023/01/19 11:07:33;;;;;;;;;;;15.10;58.10;;;;;;5104814;28;19915;-84
2023/01/19 11:10:14;;;;;;;;;;;15.10;58.10;;;;;;5068066;28;19908;-84
2023/01/19 11:12:44;;;;;;;;;;;15.20;58.10;;;;;;5105589;28;20442;-84
2023/01/19 11:15:31;;;;;;;;;;;15.20;58.00;;;;;;5070929;28;20167;-84
2023/01/19 11:17:57;;;;;;;;;;;15.30;57.90;;;;;;5072667;28;20003;-84
2023/01/19 11:20:24;;;;;;;;;;;15.30;57.70;;;;;;5104404;28;20010;-84
2023/01/19 11:23:10;;;;;;;;;;;15.40;57.70;;;;;;5072793;28;19912;-84
2023/01/19 11:25:38;;;;;;;;;;;15.50;57.60;;;;;;5061737;28;19912;-84
2023/01/19 11:28:04;;;;;;;;;;;15.60;57.30;;;;;;5105715;28;19918;-84
2023/01/19 11:30:29;;;;;;;;;;;16.00;56.60;;;;;;5070791;28;20136;-84
2023/01/19 11:32:55;;;;;;;;;;;16.50;55.90;;;;;;5089865;28;20193;-84
2023/01/19 11:35:34;;;;;;;;;;;17.00;55.00;;;;;;5105394;28;19920;-84
2023/01/19 11:38:04;;;;;;;;;;;17.30;54.30;;;;;;5067797;28;20193;-84
2023/01/19 11:40:30;;;;;;;;;;;17.50;53.80;;;;;;5104131;28;19915;-84
2023/01/19 11:42:56;;;;;;;;;;;17.70;53.50;;;;;;5103789;28;20372;-84
2023/01/19 11:45:22;;;;;;;;;;;17.90;53.20;;;;;;5101679;28;20277;-84
2023/01/19 11:47:50;;;;;;;;;;;18.10;52.90;;;;;;5100934;28;19908;-84
2023/01/19 11:50:19;;;;;;;;;;;18.30;52.70;;;;;;5099149;28;20162;-84
2023/01/19 11:52:46;;;;;;;;;;;18.40;52.40;;;;;;5084245;28;19916;-84
2023/01/19 11:55:17;;;;;;;;;;;18.50;52.30;;;;;;5100417;28;19908;-84
2023/01/19 11:57:45;;;;;;;;;;;18.50;52.20;;;;;;5097606;28;20000;-84
2023/01/19 12:00:30;;;;;;;;;;;18.60;52.10;;;;;;5099401;28;19994;-84
2023/01/19 12:03:05;;;;;;;;;;;18.70;51.90;;;;;;5067413;28;20299;-84
2023/01/19 12:05:32;;;;;;;;;;;18.80;51.70;;;;;;5104006;28;19916;-84
2023/01/19 12:07:59;;;;;;;;;;;19.00;51.60;;;;;;5100558;28;19951;-84
2023/01/19 12:10:27;;;;;;;;;;;19.00;51.80;;;;;;5103452;28;20104;-84
2023/01/19 12:12:52;;;;;;;;;;;19.10;51.30;;;;;;5068953;28;19908;-83
2023/01/19 12:15:37;;;;;;;;;;;19.10;51.20;;;;;;5089201;28;20128;-84
2023/01/19 12:18:08;;;;;;;;;;;19.10;51.30;;;;;;5067829;28;19908;-84
2023/01/19 12:20:37;;;;;;;;;;;19.00;51.20;;;;;;5101865;28;19935;-84
2023/01/19 12:23:12;;;;;;;;;;;19.00;51.30;;;;;;5102334;28;19912;-84
2023/01/19 12:25:43;;;;;;;;;;;18.90;51.30;;;;;;5069164;28;20480;-84
2023/01/19 12:28:11;;;;;;;;;;;18.90;51.40;;;;;;5102453;28;19951;-84
2023/01/19 12:30:37;;;;;;;;;;;18.80;51.40;;;;;;5103149;28;19952;-84
2023/01/19 12:33:33;;;;;;;;;;;18.70;51.50;;;;;;5100955;28;20285;-84
2023/01/19 12:35:59;;;;;;;;;;;18.60;51.60;;;;;;5068635;28;19909;-84
2023/01/19 12:38:31;;;;;;;;;;;18.60;51.70;;;;;;5100836;28;19915;-84
2023/01/19 12:41:15;;;;;;;;;;;18.50;51.80;;;;;;5099575;28;20178;-84
2023/01/19 12:43:40;;;;;;;;;;;18.40;52.00;;;;;;5101910;28;20014;-84
2023/01/19 12:46:24;;;;;;;;;;;18.30;52.10;;;;;;5100482;28;20072;-84
2023/01/19 12:48:51;;;;;;;;;;;18.20;52.20;;;;;;5082803;28;20027;-84
2023/01/19 12:51:23;;;;;;;;;;;18.10;52.30;;;;;;5066655;28;19919;-84
2023/01/19 12:54:01;;;;;;;;;;;18.00;52.50;;;;;;5066926;28;20076;-84
2023/01/19 12:56:31;;;;;;;;;;;17.90;52.70;;;;;;5065163;28;19948;-84
2023/01/19 12:58:57;;;;;;;;;;;17.70;52.80;;;;;;5084095;28;19947;-84
2023/01/19 13:01:23;;;;;;;;;;;17.70;53.00;;;;;;5083029;28;19948;-84
2023/01/19 13:04:08;;;;;;;;;;;17.60;53.00;;;;;;5098537;28;20192;-84
2023/01/19 13:06:46;;;;;;;;;;;17.70;53.00;;;;;;5101197;28;19951;-84
2023/01/19 13:09:30;;;;;;;;;;;17.80;52.80;;;;;;5085472;28;20158;-84
2023/01/19 13:12:14;;;;;;;;;;;18.20;52.30;;;;;;5100070;28;19908;-84
2023/01/19 13:14:43;;;;;;;;;;;18.50;51.90;;;;;;5100917;28;19916;-82
2023/01/19 13:17:23;;;;;;;;;;;18.60;51.90;;;;;;5065334;28;19912;-82
2023/01/19 13:19:52;;;;;;;;;;;18.70;51.90;;;;;;5067248;28;20002;-82
2023/01/19 13:22:36;;;;;;;;;;;18.70;51.90;;;;;;5086792;28;20068;-82
2023/01/19 13:25:12;;;;;;;;;;;18.80;51.90;;;;;;5100643;28;19912;-82
2023/01/19 13:27:38;;;;;;;;;;;18.90;51.70;;;;;;5065497;28;19915;-82
2023/01/19 13:30:15;;;;;;;;;;;19.00;51.60;;;;;;5084346;28;19930;-83
2023/01/19 13:32:41;;;;;;;;;;;19.10;51.60;;;;;;5065771;28;19920;-83
2023/01/19 13:35:12;;;;;;;;;;;19.10;51.50;;;;;;5067528;28;20103;-83
2023/01/19 13:37:39;;;;;;;;;;;19.10;51.60;;;;;;5067574;28;20229;-82
2023/01/19 13:40:05;;;;;;;;;;;19.10;51.70;;;;;;5084847;28;19908;-81
2023/01/19 13:42:31;;;;;;;;;;;19.10;51.80;;;;;;5069478;28;20289;-81
2023/01/19 13:44:58;;;;;;;;;;;19.10;51.70;;;;;;5103725;28;19951;-81
2023/01/19 13:47:26;;;;;;;;;;;19.10;51.70;;;;;;5069670;28;19909;-82
2023/01/19 13:49:56;;;;;;;;;;;19.10;51.60;;;;;;5068914;28;19970;-82
2023/01/19 13:52:23;;;;;;;;;;;19.00;51.60;;;;;;5071398;28;19975;-82
2023/01/19 13:54:52;;;;;;;;;;;19.00;51.60;;;;;;5072313;28;19908;-82
2023/01/19 13:57:31;;;;;;;;;;;18.90;51.50;;;;;;5070355;28;19917;-82
2023/01/19 14:00:15;;;;;;;;;;;18.80;51.60;;;;;;5067137;28;19908;-81
2023/01/19 14:02:41;;;;;;;;;;;18.70;51.50;;;;;;5103726;28;19920;-81
2023/01/19 14:05:13;;;;;;;;;;;18.70;51.50;;;;;;5102472;28;20018;-81
2023/01/19 14:07:39;;;;;;;;;;;18.60;51.50;;;;;;5070630;28;19915;-81
2023/01/19 14:10:05;;;;;;;;;;;18.60;51.50;;;;;;5071174;28;19908;-81
2023/01/19 14:12:33;;;;;;;;;;;18.50;51.50;;;;;;5068295;28;19908;-81
2023/01/19 14:14:59;;;;;;;;;;;18.50;51.60;;;;;;5102445;28;19908;-81
2023/01/19 14:17:26;;;;;;;;;;;18.40;51.60;;;;;;5068779;28;19930;-81
2023/01/19 14:19:56;;;;;;;;;;;18.30;51.70;;;;;;5064748;28;20065;-81
2023/01/19 14:22:42;;;;;;;;;;;18.20;51.90;;;;;;5070408;28;19969;-81
2023/01/19 14:25:26;;;;;;;;;;;18.10;52.10;;;;;;5087538;28;19908;-81
2023/01/19 14:28:19;;;;;;;;;;;18.00;52.40;;;;;;5072511;28;19908;-81
2023/01/19 14:30:52;;;;;;;;;;;17.90;52.80;;;;;;5073556;28;19908;-81
2023/01/19 14:33:34;;;;;;;;;;;17.90;53.50;;;;;;5079161;28;19916;-81